Time;durP1;ratioP1;P1;durP2;ratioP2;P2;SDS_P1;SDS_P2;PMS_P1;PMS_P2;Temp;Humidity;BMP_temperature;BMP_pressure;BME280_temperature;BME280_humidity;BME280_pressure;Samples;Min_cycle;Max_cycle;Signal;HPM_P1;HPM_P2
2022/02/17 00:04:38;;;;;;;5.00;1.10;;;11.40;99.90;;;;;;12525812;28;20112;-86
2022/02/17 00:10:40;;;;;;;4.55;1.10;;;11.40;99.90;;;;;;12538177;28;20098;-84
2022/02/17 00:16:42;;;;;;;6.60;1.10;;;11.50;99.90;;;;;;12529300;28;20053;-83
2022/02/17 00:22:49;;;;;;;3.65;1.00;;;11.50;99.90;;;;;;12524758;28;20537;-87
2022/02/17 00:28:51;;;;;;;7.15;1.30;;;11.50;99.90;;;;;;12516663;28;20135;-81
2022/02/17 00:34:53;;;;;;;6.10;1.27;;;11.40;99.90;;;;;;12518032;28;20044;-84
2022/02/17 00:40:55;;;;;;;7.32;1.35;;;11.40;99.90;;;;;;12524894;28;20060;-88
2022/02/17 00:46:57;;;;;;;5.22;1.30;;;11.20;99.90;;;;;;12539525;28;20160;-85
2022/02/17 00:52:59;;;;;;;6.72;1.13;;;11.10;99.90;;;;;;12524364;28;20422;-86
2022/02/17 00:59:01;;;;;;;6.13;1.38;;;11.10;99.90;;;;;;12538810;28;20170;-86
2022/02/17 01:05:04;;;;;;;10.43;1.60;;;11.20;99.90;;;;;;12515932;28;20041;-87
2022/02/17 01:11:06;;;;;;;7.85;1.42;;;11.10;99.90;;;;;;12539220;28;20610;-85
2022/02/17 01:17:09;;;;;;;9.88;1.70;;;11.00;99.90;;;;;;12547526;28;20049;-83
2022/02/17 01:23:11;;;;;;;10.00;1.80;;;11.10;99.90;;;;;;12547498;28;20045;-83
2022/02/17 01:29:13;;;;;;;10.38;1.40;;;11.20;99.90;;;;;;12523545;28;20160;-87
2022/02/17 01:35:15;;;;;;;8.07;1.15;;;9.00;99.90;;;;;;12514065;28;20067;-82
2022/02/17 01:41:17;;;;;;;4.07;1.00;;;8.90;99.90;;;;;;12518665;28;20087;-82
2022/02/17 01:47:19;;;;;;;1.55;0.50;;;8.60;99.90;;;;;;12543848;28;20059;-85
2022/02/17 01:53:21;;;;;;;2.70;0.50;;;8.50;99.90;;;;;;12530498;28;20125;-82
2022/02/17 01:59:24;;;;;;;1.40;0.50;;;8.70;99.90;;;;;;12537350;28;20073;-83
2022/02/17 02:05:26;;;;;;;4.05;0.95;;;8.80;99.90;;;;;;12510985;28;20065;-83
2022/02/17 02:11:28;;;;;;;6.15;0.93;;;8.90;99.90;;;;;;12549031;28;20126;-83
2022/02/17 02:17:31;;;;;;;6.95;1.17;;;8.90;99.90;;;;;;12544534;28;20045;-82
2022/02/17 02:23:34;;;;;;;7.32;1.42;;;9.00;99.90;;;;;;12545134;28;20135;-84
2022/02/17 02:29:37;;;;;;;7.03;1.50;;;8.90;99.90;;;;;;12551735;28;20495;-84
2022/02/17 02:35:39;;;;;;;6.57;1.40;;;9.10;99.90;;;;;;12516194;28;20506;-82
2022/02/17 02:41:42;;;;;;;7.35;1.95;;;9.20;99.90;;;;;;12543946;28;20045;-86
2022/02/17 02:47:45;;;;;;;5.90;1.20;;;9.20;99.90;;;;;;12522789;28;20763;-84
2022/02/17 02:53:49;;;;;;;9.20;1.75;;;9.50;99.90;;;;;;12527852;28;20390;-81
2022/02/17 02:59:51;;;;;;;11.00;1.85;;;9.60;99.90;;;;;;12521992;28;20429;-81
2022/02/17 03:05:52;;;;;;;15.02;1.75;;;9.60;99.90;;;;;;12534496;28;20144;-83
2022/02/17 03:11:55;;;;;;;10.18;2.03;;;9.70;99.90;;;;;;12538617;28;20387;-83
2022/02/17 03:18:01;;;;;;;10.85;1.70;;;9.90;99.90;;;;;;12534872;28;20042;-85
2022/02/17 03:24:04;;;;;;;10.57;1.50;;;10.10;99.90;;;;;;12521762;28;20437;-83
2022/02/17 03:30:08;;;;;;;7.95;1.58;;;10.10;99.90;;;;;;12512523;28;20052;-86
2022/02/17 03:36:10;;;;;;;9.32;1.60;;;10.00;99.90;;;;;;12526718;28;20083;-87
2022/02/17 03:42:14;;;;;;;12.25;1.65;;;9.80;99.90;;;;;;12510631;28;20156;-88
2022/02/17 03:48:15;;;;;;;6.00;1.33;;;9.60;99.90;;;;;;12501886;28;20116;-87
2022/02/17 03:54:18;;;;;;;9.23;1.60;;;9.60;99.90;;;;;;12521066;28;20053;-87
2022/02/17 04:00:20;;;;;;;11.40;1.70;;;9.50;99.90;;;;;;12521923;28;20477;-83
2022/02/17 04:06:22;;;;;;;9.68;1.80;;;9.40;99.90;;;;;;12522876;28;20053;-90
2022/02/17 04:12:24;;;;;;;10.30;1.52;;;9.40;99.90;;;;;;12510625;28;20076;-86
2022/02/17 04:18:26;;;;;;;15.52;2.25;;;9.30;99.90;;;;;;12531469;28;20114;-87
2022/02/17 04:24:28;;;;;;;12.07;2.60;;;9.10;99.90;;;;;;12515638;28;20045;-88
2022/02/17 04:30:30;;;;;;;11.60;2.30;;;8.60;99.90;;;;;;12518131;28;20132;-88
2022/02/17 04:36:33;;;;;;;11.27;1.60;;;8.80;99.90;;;;;;12510086;28;20040;-88
2022/02/17 04:42:35;;;;;;;12.73;2.03;;;9.00;99.90;;;;;;12511609;28;20121;-82
2022/02/17 04:48:39;;;;;;;13.60;2.85;;;9.10;99.90;;;;;;12522689;28;20139;-83
2022/02/17 04:54:41;;;;;;;11.50;2.10;;;9.30;99.90;;;;;;12531592;28;20131;-86
2022/02/17 05:00:46;;;;;;;11.10;1.55;;;9.20;99.90;;;;;;12525790;28;20041;-84
2022/02/17 05:06:49;;;;;;;6.90;1.50;;;9.10;99.90;;;;;;12541193;28;20052;-86
2022/02/17 05:12:51;;;;;;;5.93;1.38;;;9.10;99.90;;;;;;12526723;28;20052;-87
2022/02/17 05:18:54;;;;;;;9.13;1.50;;;9.20;99.90;;;;;;12513434;28;20079;-87
2022/02/17 05:24:56;;;;;;;11.35;2.03;;;9.10;99.90;;;;;;12540678;28;20099;-85
2022/02/17 05:30:59;;;;;;;12.30;1.85;;;8.90;99.90;;;;;;12517326;28;20072;-87
2022/02/17 05:37:03;;;;;;;7.53;1.30;;;9.00;99.90;;;;;;12508235;28;20497;-88
2022/02/17 05:43:06;;;;;;;;;;;9.00;99.90;;;;;;12524697;28;20489;-88
2022/02/17 05:49:08;;;;;;;10.35;1.60;;;8.80;99.90;;;;;;12517087;28;19924;-86
2022/02/17 05:55:10;;;;;;;17.23;1.92;;;8.80;99.90;;;;;;12514025;28;20082;-86
2022/02/17 06:01:12;;;;;;;10.98;1.88;;;8.80;99.90;;;;;;12537910;28;20045;-85
2022/02/17 06:07:14;;;;;;;12.30;2.58;;;8.60;99.90;;;;;;12538328;28;20140;-86
2022/02/17 06:13:16;;;;;;;13.27;1.80;;;8.70;99.90;;;;;;12517180;28;20130;-85
2022/02/17 06:19:18;;;;;;;12.80;2.20;;;8.70;99.90;;;;;;12519928;28;20079;-87
2022/02/17 06:25:22;;;;;;;6.95;1.35;;;8.70;99.90;;;;;;12521324;28;20436;-84
2022/02/17 06:31:23;;;;;;;9.40;1.60;;;8.70;99.90;;;;;;12509229;28;20041;-85
2022/02/17 06:37:26;;;;;;;12.30;1.83;;;8.60;99.90;;;;;;12520997;28;20062;-87
2022/02/17 06:43:28;;;;;;;8.73;1.60;;;8.60;99.90;;;;;;12518624;28;20570;-86
2022/02/17 06:49:32;;;;;;;10.80;2.33;;;8.50;99.90;;;;;;12518097;28;20496;-86
2022/02/17 06:55:36;;;;;;;13.00;1.73;;;8.50;99.90;;;;;;12518164;28;20056;-86
2022/02/17 07:01:39;;;;;;;10.55;2.10;;;8.60;99.90;;;;;;12511004;28;20045;-85
2022/02/17 07:07:41;;;;;;;10.55;2.00;;;8.50;99.90;;;;;;12508007;28;20061;-84
2022/02/17 07:13:43;;;;;;;15.18;2.38;;;8.40;99.90;;;;;;12527517;28;20102;-86
2022/02/17 07:19:45;;;;;;;11.55;1.90;;;8.50;99.90;;;;;;12531651;28;20052;-85
2022/02/17 07:25:47;;;;;;;9.90;1.77;;;8.50;99.90;;;;;;12504183;28;20060;-85
2022/02/17 07:31:52;;;;;;;8.85;1.80;;;8.40;99.90;;;;;;12512470;28;20416;-87
2022/02/17 07:37:54;;;;;;;11.63;1.92;;;8.40;99.90;;;;;;12517311;28;20038;-87
2022/02/17 07:43:56;;;;;;;8.15;1.45;;;8.40;99.90;;;;;;12513736;28;20145;-87
2022/02/17 07:49:58;;;;;;;9.27;1.88;;;8.50;99.90;;;;;;12513167;28;20056;-86
2022/02/17 07:56:01;;;;;;;9.93;1.52;;;8.50;99.90;;;;;;12526965;28;20112;-85
2022/02/17 08:02:03;;;;;;;8.75;1.70;;;8.50;99.90;;;;;;12510500;28;20049;-85
2022/02/17 08:08:06;;;;;;;9.30;1.92;;;8.50;99.90;;;;;;12508765;28;20060;-86
2022/02/17 08:14:07;;;;;;;6.72;1.35;;;8.40;99.90;;;;;;12526081;28;20044;-84
2022/02/17 08:20:11;;;;;;;12.98;2.10;;;8.30;99.90;;;;;;12512533;28;20045;-86
2022/02/17 08:26:13;;;;;;;10.30;1.85;;;8.30;99.90;;;;;;12514313;28;20052;-85
2022/02/17 08:32:15;;;;;;;12.00;1.58;;;8.20;99.90;;;;;;12510500;28;20052;-87
2022/02/17 08:38:17;;;;;;;9.00;1.38;;;8.20;99.90;;;;;;12508834;28;20476;-85
2022/02/17 08:44:20;;;;;;;11.10;1.33;;;8.20;99.90;;;;;;12514156;28;20132;-86
2022/02/17 08:50:22;;;;;;;9.57;1.25;;;8.20;99.90;;;;;;12500438;28;20037;-85
2022/02/17 08:56:25;;;;;;;7.30;1.40;;;8.20;99.90;;;;;;12517550;28;20128;-87
2022/02/17 09:02:26;;;;;;;7.50;1.30;;;8.20;99.90;;;;;;12506283;28;20812;-84
2022/02/17 09:08:28;;;;;;;4.63;1.20;;;8.30;99.90;;;;;;12521313;28;20052;-87
2022/02/17 09:14:32;;;;;;;13.73;1.58;;;8.30;99.90;;;;;;12521428;28;20037;-84
2022/02/17 09:20:36;;;;;;;11.98;1.65;;;8.20;99.90;;;;;;12521500;28;20049;-84
2022/02/17 09:26:38;;;;;;;10.57;1.48;;;8.30;99.90;;;;;;12525708;28;20087;-88
2022/02/17 09:32:40;;;;;;;8.82;1.58;;;8.40;99.90;;;;;;12546172;28;20049;-84
2022/02/17 09:38:42;;;;;;;8.77;1.40;;;8.30;99.90;;;;;;12542651;28;20080;-85
2022/02/17 09:44:45;;;;;;;7.15;1.20;;;8.30;99.90;;;;;;12551947;28;20041;-87
2022/02/17 09:50:47;;;;;;;8.43;1.30;;;8.40;99.90;;;;;;12520986;28;20502;-86
2022/02/17 09:56:49;;;;;;;11.85;1.58;;;8.30;99.90;;;;;;12527279;28;20050;-85
2022/02/17 10:02:51;;;;;;;11.55;1.70;;;8.20;99.90;;;;;;12516583;28;20068;-85
2022/02/17 10:09:06;;;;;;;8.93;1.45;;;8.20;99.90;;;;;;12519913;28;20203;-87
2022/02/17 10:15:08;;;;;;;11.45;1.40;;;8.00;99.90;;;;;;12534561;28;20041;-85
2022/02/17 10:21:13;;;;;;;7.95;1.45;;;8.10;99.90;;;;;;12517207;28;20041;-88
2022/02/17 10:27:23;;;;;;;9.20;1.50;;;7.90;99.90;;;;;;12518428;28;20053;-85
2022/02/17 10:33:39;;;;;;;8.00;1.38;;;8.10;99.90;;;;;;12518145;28;20135;-88
2022/02/17 10:39:44;;;;;;;8.18;1.95;;;8.20;99.90;;;;;;12522295;28;20098;-87
2022/02/17 10:45:49;;;;;;;6.95;1.20;;;8.30;99.90;;;;;;12527041;28;20053;-85
2022/02/17 10:51:51;;;;;;;;;;;8.20;99.90;;;;;;12535884;28;20049;-84
2022/02/17 10:57:53;;;;;;;5.10;1.25;;;8.10;99.90;;;;;;12527970;28;19925;-83
2022/02/17 11:03:55;;;;;;;10.15;1.63;;;7.60;99.90;;;;;;12513245;28;20069;-84
2022/02/17 11:09:57;;;;;;;9.52;1.30;;;7.30;99.90;;;;;;12529125;28;20721;-87
2022/02/17 11:16:02;;;;;;;12.23;1.60;;;7.50;99.90;;;;;;12517208;28;20405;-83
2022/02/17 11:22:05;;;;;;;10.50;1.27;;;7.80;99.90;;;;;;12544920;28;20044;-85
2022/02/17 11:28:11;;;;;;;10.80;1.83;;;7.80;99.90;;;;;;12517875;28;20564;-84
2022/02/17 11:34:45;;;;;;;8.20;1.27;;;8.00;99.90;;;;;;12529459;28;20053;-85
2022/02/17 11:41:16;;;;;;;6.03;1.45;;;8.00;99.90;;;;;;12514371;28;20057;-86
2022/02/17 11:47:17;;;;;;;10.18;1.23;;;7.90;99.90;;;;;;12521424;28;20049;-86
2022/02/17 11:53:30;;;;;;;7.93;0.90;;;7.80;99.90;;;;;;12509682;28;20049;-84
2022/02/17 11:59:33;;;;;;;7.45;1.23;;;7.80;99.90;;;;;;12511702;28;20068;-87
2022/02/17 12:05:35;;;;;;;9.23;1.40;;;8.20;99.90;;;;;;12499818;28;20140;-82
2022/02/17 12:11:38;;;;;;;5.38;1.38;;;8.30;99.90;;;;;;12521523;28;20084;-82
2022/02/17 12:17:44;;;;;;;5.32;1.55;;;8.90;99.90;;;;;;12501997;28;20147;-84
2022/02/17 12:23:47;;;;;;;5.05;1.02;;;9.10;99.90;;;;;;12510941;28;20482;-84
2022/02/17 12:29:54;;;;;;;8.25;1.40;;;9.30;99.90;;;;;;12508526;28;20053;-85
2022/02/17 12:36:10;;;;;;;7.75;1.10;;;9.50;99.90;;;;;;12529948;28;20040;-84
2022/02/17 12:42:13;;;;;;;5.15;1.50;;;9.60;99.90;;;;;;12506078;28;20076;-85
2022/02/17 12:48:17;;;;;;;9.60;1.45;;;9.30;99.90;;;;;;12502248;28;20099;-84
2022/02/17 12:54:42;;;;;;;8.20;1.52;;;8.90;99.90;;;;;;12525982;28;20582;-86
2022/02/17 13:00:43;;;;;;;10.40;1.52;;;8.60;99.90;;;;;;12518368;28;20072;-87
2022/02/17 13:06:47;;;;;;;5.18;1.05;;;8.60;99.90;;;;;;12511425;28;20096;-86
2022/02/17 13:12:57;;;;;;;8.70;1.30;;;9.00;99.90;;;;;;12518461;28;20050;-83
2022/02/17 13:18:59;;;;;;;7.25;1.20;;;9.40;99.90;;;;;;12512234;28;20044;-87
2022/02/17 13:25:05;;;;;;;4.50;0.77;;;9.70;99.90;;;;;;12525673;28;20083;-87
2022/02/17 13:31:29;;;;;;;4.60;0.77;;;9.30;99.90;;;;;;12518634;28;20049;-84
2022/02/17 13:37:51;;;;;;;6.93;0.98;;;9.20;99.90;;;;;;12526294;28;20068;-87
2022/02/17 13:43:55;;;;;;;4.40;0.85;;;9.40;99.90;;;;;;12522452;28;20184;-85
2022/02/17 13:49:59;;;;;;;6.28;1.52;;;9.40;99.90;;;;;;12520299;28;20113;-84
2022/02/17 13:56:05;;;;;;;12.17;1.20;;;9.40;99.90;;;;;;12521582;28;20053;-86
2022/02/17 14:02:10;;;;;;;4.10;0.80;;;9.30;99.90;;;;;;12506829;28;20809;-88
2022/02/17 14:08:13;;;;;;;4.10;1.13;;;9.10;99.90;;;;;;12511912;28;20091;-87
2022/02/17 14:14:18;;;;;;;4.90;0.85;;;8.90;99.90;;;;;;12548746;28;20047;-86
2022/02/17 14:20:20;;;;;;;9.63;1.10;;;8.70;99.90;;;;;;12544251;28;20053;-87
2022/02/17 14:26:22;;;;;;;6.68;1.10;;;8.30;99.90;;;;;;12535214;28;20049;-89
2022/02/17 14:32:29;;;;;;;8.70;1.08;;;8.20;99.90;;;;;;12562703;28;20056;-88
2022/02/17 14:38:32;;;;;;;7.38;1.30;;;8.40;99.90;;;;;;12513862;28;20065;-86
2022/02/17 14:44:34;;;;;;;5.10;0.77;;;8.70;99.90;;;;;;12532066;28;20136;-84
2022/02/17 14:50:36;;;;;;;8.25;0.98;;;8.80;99.90;;;;;;12492945;28;20049;-85
2022/02/17 14:56:39;;;;;;;5.97;1.05;;;8.60;99.90;;;;;;12504863;28;20068;-91
2022/02/17 15:02:42;;;;;;;7.07;0.85;;;8.50;99.90;;;;;;12505569;28;20076;-86
2022/02/17 15:08:43;;;;;;;6.22;0.90;;;8.40;99.90;;;;;;12494612;28;20609;-88
2022/02/17 15:14:45;;;;;;;6.22;0.98;;;8.40;99.90;;;;;;12508808;28;20585;-85
2022/02/17 15:20:47;;;;;;;6.82;0.93;;;8.50;99.90;;;;;;12510537;28;20576;-85
2022/02/17 15:26:49;;;;;;;6.78;1.00;;;8.40;99.90;;;;;;12512576;28;20053;-84
2022/02/17 15:32:52;;;;;;;5.35;0.73;;;8.30;99.90;;;;;;12507220;28;20045;-82
2022/02/17 15:38:54;;;;;;;3.80;0.80;;;7.80;99.90;;;;;;12520005;28;20048;-85
2022/02/17 15:44:57;;;;;;;6.88;0.82;;;7.40;99.90;;;;;;12527290;28;20049;-87
2022/02/17 15:50:59;;;;;;;4.85;0.75;;;7.30;99.90;;;;;;12529785;28;20924;-87
2022/02/17 15:57:02;;;;;;;4.05;0.80;;;7.30;99.90;;;;;;12515767;28;20056;-85
2022/02/17 16:03:04;;;;;;;4.07;0.70;;;7.00;99.90;;;;;;12514074;28;20428;-83
2022/02/17 16:09:07;;;;;;;3.80;0.70;;;6.90;99.90;;;;;;12520897;28;20289;-85
2022/02/17 16:15:12;;;;;;;4.40;0.60;;;6.90;99.90;;;;;;12541954;28;20049;-85
2022/02/17 16:21:16;;;;;;;2.67;0.60;;;6.90;99.90;;;;;;12514213;28;20470;-85
2022/02/17 16:27:20;;;;;;;4.22;1.00;;;6.90;99.90;;;;;;12523713;28;20068;-86
2022/02/17 16:33:23;;;;;;;11.90;1.30;;;6.60;99.90;;;;;;12510851;28;20045;-86
2022/02/17 16:39:25;;;;;;;3.53;0.95;;;6.00;99.90;;;;;;12498088;28;20053;-85
2022/02/17 16:45:27;;;;;;;3.95;0.90;;;5.70;99.90;;;;;;12508447;28;20068;-85
2022/02/17 16:51:29;;;;;;;5.63;1.02;;;5.80;99.90;;;;;;12514974;28;20509;-85
2022/02/17 16:57:32;;;;;;;8.82;1.20;;;5.90;99.90;;;;;;12524056;28;20049;-85
2022/02/17 17:03:33;;;;;;;7.57;1.25;;;6.00;99.90;;;;;;12504451;28;20037;-84
2022/02/17 17:09:35;;;;;;;5.97;1.00;;;6.00;99.90;;;;;;12514656;28;20056;-83
2022/02/17 17:15:37;;;;;;;6.80;1.25;;;6.00;99.90;;;;;;12522107;28;20110;-83
2022/02/17 17:21:39;;;;;;;6.75;1.70;;;6.00;99.90;;;;;;12511218;28;20132;-84
2022/02/17 17:27:41;;;;;;;7.88;1.60;;;5.90;99.90;;;;;;12500670;28;20454;-84
2022/02/17 17:33:44;;;;;;;5.95;1.30;;;6.00;99.90;;;;;;12520400;28;20049;-85
2022/02/17 17:39:47;;;;;;;7.05;1.45;;;6.20;99.90;;;;;;12517153;28;20117;-84
2022/02/17 17:45:49;;;;;;;6.28;1.15;;;6.20;99.90;;;;;;12518158;28;20135;-83
2022/02/17 17:51:50;;;;;;;11.02;1.60;;;6.30;99.90;;;;;;12509327;28;20048;-85
2022/02/17 17:57:53;;;;;;;8.90;1.50;;;6.30;99.90;;;;;;12536177;28;20364;-85
2022/02/17 18:03:55;;;;;;;7.05;1.10;;;6.40;99.90;;;;;;12533580;28;20788;-86
2022/02/17 18:09:58;;;;;;;10.13;1.70;;;6.40;99.90;;;;;;12541113;28;20087;-84
2022/02/17 18:16:00;;;;;;;5.72;0.95;;;6.50;99.90;;;;;;12519896;28;20520;-82
2022/02/17 18:22:04;;;;;;;5.28;1.30;;;6.60;99.90;;;;;;12523292;28;20041;-87
2022/02/17 18:28:06;;;;;;;5.00;1.20;;;6.60;99.90;;;;;;12551174;28;20052;-86
2022/02/17 18:34:08;;;;;;;6.20;1.13;;;6.50;99.90;;;;;;12539001;28;20059;-83
2022/02/17 18:40:10;;;;;;;6.38;1.27;;;6.50;99.90;;;;;;12523533;28;20171;-83
2022/02/17 18:46:13;;;;;;;5.53;1.20;;;6.40;99.90;;;;;;12532341;28;20052;-83
2022/02/17 18:52:17;;;;;;;4.32;1.08;;;6.40;99.90;;;;;;12518274;28;20041;-82
2022/02/17 18:58:23;;;;;;;6.03;1.65;;;6.50;99.90;;;;;;12532556;28;20056;-84
2022/02/17 19:04:25;;;;;;;5.88;1.13;;;6.40;99.90;;;;;;12494737;28;20051;-84
2022/02/17 19:10:27;;;;;;;8.77;1.30;;;6.40;99.90;;;;;;12517587;28;20076;-83
2022/02/17 19:16:29;;;;;;;11.52;1.23;;;6.40;99.90;;;;;;12519969;28;20084;-88
2022/02/17 19:22:31;;;;;;;11.13;1.30;;;6.40;99.90;;;;;;12522677;28;20593;-84
2022/02/17 19:28:34;;;;;;;8.40;1.15;;;6.30;99.90;;;;;;12519169;28;20504;-81
2022/02/17 19:34:38;;;;;;;7.05;1.20;;;6.40;99.90;;;;;;12524367;28;20055;-83
2022/02/17 19:40:41;;;;;;;8.13;1.27;;;6.30;99.90;;;;;;12517244;28;20057;-82
2022/02/17 19:46:44;;;;;;;7.25;1.42;;;6.20;99.90;;;;;;12512270;28;20881;-83
2022/02/17 19:52:47;;;;;;;10.85;1.30;;;6.20;99.90;;;;;;12508976;28;20493;-84
2022/02/17 19:58:50;;;;;;;11.95;1.52;;;6.10;99.90;;;;;;12530215;28;20045;-83
2022/02/17 20:04:53;;;;;;;11.73;2.67;;;6.10;99.90;;;;;;12529983;28;20044;-84
2022/02/17 20:10:56;;;;;;;7.30;1.25;;;6.10;99.90;;;;;;12527886;28;20072;-82
2022/02/17 20:17:01;;;;;;;7.85;1.08;;;6.10;99.90;;;;;;12502506;28;20556;-84
2022/02/17 20:23:03;;;;;;;6.25;1.23;;;6.00;99.90;;;;;;12533561;28;20037;-82
2022/02/17 20:29:07;;;;;;;9.13;1.65;;;5.90;99.90;;;;;;12514460;28;20139;-82
2022/02/17 20:35:12;;;;;;;7.32;1.15;;;6.00;99.90;;;;;;12511482;28;20121;-82
2022/02/17 20:41:16;;;;;;;8.63;1.40;;;6.00;99.90;;;;;;12529308;28;20497;-81
2022/02/17 20:53:41;;;;;;;5.55;1.20;;;5.90;99.90;;;;;;12529167;28;20374;-83
2022/02/17 20:59:45;;;;;;;8.10;1.23;;;5.90;99.90;;;;;;12509855;28;20045;-82
2022/02/17 21:05:46;;;;;;;6.60;1.00;;;6.00;99.90;;;;;;12526984;28;20053;-82
2022/02/17 21:11:50;;;;;;;7.53;1.88;;;5.80;99.90;;;;;;12524467;28;20149;-82
2022/02/17 21:17:55;;;;;;;7.15;1.00;;;5.80;99.90;;;;;;12529470;28;20041;-83
2022/02/17 21:24:00;;;;;;;8.35;1.52;;;5.90;99.90;;;;;;12538438;28;20037;-83
2022/02/17 21:30:03;;;;;;;11.38;1.73;;;5.90;99.90;;;;;;12551676;28;20065;-83
2022/02/17 21:36:06;;;;;;;7.43;1.50;;;5.90;99.90;;;;;;12538072;28;20048;-82
2022/02/17 21:42:11;;;;;;;11.52;1.55;;;5.90;99.90;;;;;;12528882;28;20045;-82
2022/02/17 21:48:19;;;;;;;9.10;1.75;;;5.90;99.90;;;;;;12528643;28;20608;-82
2022/02/17 21:54:31;;;;;;;8.65;1.52;;;6.00;99.90;;;;;;12536908;28;20124;-83
2022/02/17 22:00:34;;;;;;;10.88;1.77;;;6.00;99.90;;;;;;12537204;28;20477;-83
2022/02/17 22:06:36;;;;;;;9.00;1.75;;;6.10;99.90;;;;;;12539301;28;20139;-82
2022/02/17 22:12:38;;;;;;;10.15;1.42;;;6.10;99.90;;;;;;12521254;28;20069;-82
2022/02/17 22:18:41;;;;;;;10.65;1.40;;;6.00;99.90;;;;;;12513033;28;20126;-82
2022/02/17 22:24:43;;;;;;;10.07;1.60;;;6.00;99.90;;;;;;12517798;28;20048;-83
2022/02/17 22:30:45;;;;;;;8.60;1.40;;;6.10;99.90;;;;;;12531803;28;20115;-82
2022/02/17 22:36:48;;;;;;;12.75;1.85;;;6.30;99.90;;;;;;12519974;28;20139;-82
2022/02/17 22:42:51;;;;;;;10.98;1.60;;;6.20;99.90;;;;;;12513148;28;20135;-83
2022/02/17 22:48:55;;;;;;;7.68;1.60;;;6.30;99.90;;;;;;12513254;28;20093;-83
2022/02/17 22:54:58;;;;;;;11.63;1.40;;;6.20;99.90;;;;;;12510924;28;20576;-82
2022/02/17 23:01:01;;;;;;;12.45;1.35;;;6.00;99.90;;;;;;12512452;28;20073;-84
2022/02/17 23:07:04;;;;;;;9.77;1.63;;;5.90;99.90;;;;;;12527630;28;20041;-83
2022/02/17 23:13:06;;;;;;;12.70;1.50;;;5.90;99.90;;;;;;12517405;28;20464;-83
2022/02/17 23:19:08;;;;;;;8.32;1.60;;;6.00;99.90;;;;;;12529248;28;20049;-82
2022/02/17 23:25:10;;;;;;;12.88;2.97;;;5.90;99.90;;;;;;12513171;28;22184;-82
2022/02/17 23:31:13;;;;;;;7.55;1.35;;;5.80;99.90;;;;;;12514842;28;20389;-81
2022/02/17 23:37:15;;;;;;;6.38;1.23;;;5.60;99.90;;;;;;12514954;28;20049;-83
2022/02/17 23:43:18;;;;;;;7.85;1.45;;;5.50;99.90;;;;;;12507630;28;20242;-81
2022/02/17 23:49:26;;;;;;;10.48;2.53;;;5.50;99.90;;;;;;12502430;28;20111;-84
2022/02/17 23:55:28;;;;;;;10.07;3.08;;;5.50;99.90;;;;;;12518057;28;20044;-83
